Flight Track Log - Related Links

Times and Time Zones

All times are in EDT time to prevent confusion due to time zone crossing. See the TAM3821 flight status page for this flight to view local times or setup timezone preferences in your user account.

Time Position Orientation Groundspeed Altitude Reporting Facility
EDT Latitude Longitude Course Direction KTS MPH feet Rate Location/Type
Sun 08:21:20 AM -15.8690 -47.9190 320° Northwest 10 12  Level FlightAware ADS-B
Sun 08:23:24 AM -15.8700 -47.9190 180° South 380 Level FlightAware ADS-B
Sun 08:25:54 AM -15.8690 -47.9190 148° Southeast 27 31 473 Level FlightAware ADS-B
Sun 08:26:00 AM -16.0946 -47.7746 148° Southeast  Level Estimated
Sun 08:26:22 AM -15.8690 -47.9170 90° East 32 37  Level FlightAware ADS-B
Sun 08:26:46 AM -15.8680 -47.9160 44° Northeast 28 32 729 Level FlightAware ADS-B
Sun 08:27:19 AM -15.8660 -47.9160 360° North 16 18 787 Level FlightAware ADS-B
Sun 08:27:47 AM -15.8650 -47.9170 316° Northwest 28 32 882 Level FlightAware ADS-B
Sun 08:28:12 AM -15.8650 -47.9200 270° West 28 32 984 Level FlightAware ADS-B
Sun 08:28:47 AM -15.8650 -47.9210 270° West 18 21 1,096 Level FlightAware ADS-B
Sun 08:29:31 AM -15.8650 -47.9250 270° West 23 26 1,304 Level FlightAware ADS-B
Sun 08:29:53 AM -15.8650 -47.9270 270° West 16 18 1,714 Level FlightAware ADS-B
Sun 08:30:55 AM -15.8640 -47.9270 360° North 21 24 2,034 Level FlightAware ADS-B
Sun 08:31:23 AM -15.8630 -47.9140 85° East 140 161 4,286 Level FlightAware ADS-B
Sun 08:31:51 AM -15.8610 -47.8930 84° East 157 181 4,000 5,464 Climbing FlightAware ADS-B
Sun 08:32:19 AM -15.8600 -47.8720 87° East 155 178 5,100 1,929 Climbing FlightAware ADS-B
Sun 08:32:47 AM -15.8600 -47.8500 90° East 168 193 5,800 1,440 Climbing FlightAware ADS-B
Sun 08:33:09 AM -15.8590 -47.8320 87° East 181 208 6,300 1,650 Climbing FlightAware ADS-B
Sun 08:33:27 AM -15.8580 -47.8160 86° East 182 209 6,900 1,579 Climbing FlightAware ADS-B
Sun 08:33:47 AM -15.8650 -47.7990 113° Southeast 203 234 7,300 1,000 Climbing FlightAware ADS-B
Sun 08:34:03 AM -15.8780 -47.7920 153° Southeast 221 254 7,500 750 Climbing FlightAware ADS-B
Sun 08:34:27 AM -15.9060 -47.7840 165° South 262 302 7,800 1,000 Climbing FlightAware ADS-B
Sun 08:34:57 AM -15.9420 -47.7730 164° South 301 346 8,400 1,800 Climbing FlightAware ADS-B
Sun 08:35:17 AM -15.9690 -47.7650 164° South 309 356 9,300 2,700 Climbing FlightAware ADS-B
Sun 08:35:57 AM -16.0240 -47.7470 163° South 312 359 11,100 1,906 Climbing FlightAware ADS-B
Sun 08:36:42 AM -16.0920 -47.7260 163° South 362 417 12,000 1,725 Climbing FlightAware ADS-B
Sun 08:37:17 AM -16.1470 -47.7080 163° South 368 423 13,400 2,289 Climbing FlightAware ADS-B
Sun 08:37:58 AM -16.2160 -47.6860 163° South 379 436 14,900 2,118 Climbing FlightAware ADS-B
Sun 08:38:42 AM -16.2920 -47.6610 162° South 390 449 16,400 1,929 Climbing FlightAware ADS-B
Sun 08:39:22 AM -16.3640 -47.6380 163° South 403 464 17,600 1,756 Climbing FlightAware ADS-B
Sun 08:40:04 AM -16.4330 -47.6160 163° South 410 472 18,800 1,829 Climbing FlightAware ADS-B
Sun 08:40:44 AM -16.5110 -47.5910 163° South 420 483 20,100 1,765 Climbing FlightAware ADS-B
Sun 08:41:29 AM -16.5940 -47.5590 160° South 432 497 21,300 765 Climbing FlightAware ADS-B
Sun 08:42:26 AM -16.6810 -47.5140 154° Southeast 433 498 21,400 1,101 Climbing FlightAware ADS-B
Sun 08:43:18 AM -16.7760 -47.4400 143° Southeast 430 495 23,300 2,440 Climbing FlightAware ADS-B
Sun 08:43:57 AM -16.8370 -47.3480 125° Southeast 430 495 25,100 2,214 Climbing FlightAware ADS-B
Sun 08:44:42 AM -16.9040 -47.2760 134° Southeast 473 544 26,400 1,358 Climbing FlightAware ADS-B
Sun 08:45:43 AM -16.9930 -47.1780 134° Southeast 473 544 27,500 776 Climbing FlightAware ADS-B
Sun 08:46:38 AM -17.0710 -47.0910 133° Southeast 485 558 27,900 1,613 Climbing FlightAware ADS-B
Sun 08:47:16 AM -17.1410 -47.0170 135° Southeast 477 549 30,000 2,462 Climbing FlightAware ADS-B
Sun 08:47:56 AM -17.2020 -46.9500 134° Southeast 474 545 31,100 1,459 Climbing FlightAware ADS-B
Sun 08:48:30 AM -17.2520 -46.8960 134° Southeast 476 548 31,800 1,275 Climbing FlightAware ADS-B
Sun 08:49:16 AM -17.3230 -46.8180 134° Southeast 473 544 32,800 828 Climbing FlightAware ADS-B
Sun 08:49:57 AM -17.3850 -46.7490 133° Southeast 470 541 33,000 143 Climbing FlightAware ADS-B
Sun 08:50:40 AM -17.4510 -46.6770 134° Southeast 469 540 33,000  Level FlightAware ADS-B
Sun 08:51:34 AM -17.5230 -46.5960 133° Southeast 469 540 33,000  Level FlightAware ADS-B
Sun 08:52:10 AM -17.5690 -46.5450 133° Southeast 469 540 33,000  Level FlightAware ADS-B
Sun 08:52:58 AM -17.6290 -46.4770 133° Southeast 469 540 33,000  Level FlightAware ADS-B
Sun 08:53:35 AM -17.6760 -46.4250 133° Southeast 469 540 33,000  Level FlightAware ADS-B
Sun 08:54:11 AM -17.7210 -46.3740 133° Southeast 469 540 33,000  Level FlightAware ADS-B
Sun 08:54:47 AM -17.7660 -46.3230 133° Southeast 469 540 33,000  Level FlightAware ADS-B
Sun 08:55:35 AM -17.8270 -46.2550 133° Southeast 469 540 33,000  Level FlightAware ADS-B
Sun 08:56:11 AM -17.8720 -46.2040 133° Southeast 469 540 33,000  Level FlightAware ADS-B
Sun 08:56:59 AM -17.9320 -46.1360 133° Southeast 469 540 33,000  Level FlightAware ADS-B
Sun 08:57:35 AM -17.9770 -46.0850 133° Southeast 469 540 33,000  Level FlightAware ADS-B
Sun 08:58:11 AM -18.0230 -46.0330 133° Southeast 469 540 33,000  Level FlightAware ADS-B
Sun 08:58:59 AM -18.0830 -45.9650 133° Southeast 469 540 33,000  Level FlightAware ADS-B
Sun 08:59:35 AM -18.1280 -45.9140 133° Southeast 469 540 33,000  Level FlightAware ADS-B
Sun 09:00:24 AM -18.1900 -45.8450 133° Southeast 469 540 33,000  Level FlightAware ADS-B
Sun 09:00:53 AM -18.5720 -45.9490 194° South 467 537 33,000  Level FlightAware ADS-B
Sun 09:01:35 AM -18.6520 -45.9000 150° Southeast 467 537 33,000  Level FlightAware ADS-B
Sun 09:02:17 AM -18.7270 -45.8550 150° Southeast 467 537 33,000  Level FlightAware ADS-B
Sun 09:02:59 AM -18.8090 -45.8050 150° Southeast 468 539 33,000  Level FlightAware ADS-B
Sun 09:03:31 AM -18.8680 -45.7690 150° Southeast 467 537 33,000  Level FlightAware ADS-B
Sun 09:04:16 AM -18.9530 -45.7170 150° Southeast 469 540 33,000  Level FlightAware ADS-B
Sun 09:04:56 AM -19.0280 -45.6710 150° Southeast 469 540 33,000  Level FlightAware ADS-B
Sun 09:05:31 AM -19.0960 -45.6300 150° Southeast 469 540 33,000  Level FlightAware ADS-B
Sun 09:06:15 AM -19.1770 -45.5800 150° Southeast 469 540 33,000  Level FlightAware ADS-B
Sun 09:06:57 AM -19.2560 -45.5320 150° Southeast 469 540 33,000  Level FlightAware ADS-B
Sun 09:07:38 AM -19.3340 -45.4840 150° Southeast 469 540 33,000  Level FlightAware ADS-B
Sun 09:08:17 AM -19.3950 -45.4450 149° Southeast 469 540 33,000  Level FlightAware ADS-B
Sun 09:09:01 AM -19.4800 -45.3930 150° Southeast 469 540 33,000  Level FlightAware ADS-B
Sun 09:09:39 AM -19.5400 -45.3550 149° Southeast 469 540 33,000  Level FlightAware ADS-B
Sun 09:10:27 AM -19.6160 -45.3070 149° Southeast 469 540 33,000  Level FlightAware ADS-B
Sun 09:11:21 AM -19.7010 -45.2520 149° Southeast 469 540 33,000  Level FlightAware ADS-B
Sun 09:12:08 AM -19.7760 -45.2050 149° Southeast 469 540 33,000  Level FlightAware ADS-B
Sun 09:12:47 AM -19.8870 -45.1420 152° Southeast 469 540 33,000  Level FlightAware ADS-B
Sun 09:13:30 AM -19.9870 -45.0790 149° Southeast 470 541 33,000  Level FlightAware ADS-B
Sun 09:14:13 AM -20.0610 -45.0330 150° Southeast 470 541 33,000  Level FlightAware ADS-B
Sun 09:15:27 AM -20.1980 -44.9470 149° Southeast 470 541 33,000  Level FlightAware ADS-B
Sun 09:16:00 AM -20.1993 -44.9448 149° Southeast  Level Estimated
Sun 09:16:35 AM -20.3170 -44.8730 150° Southeast 470 541 33,000  Level FlightAware ADS-B
Sun 09:17:10 AM -20.3810 -44.8330 150° Southeast 470 541 33,000 -162 Level FlightAware ADS-B
Sun 09:17:49 AM -20.4660 -44.7790 149° Southeast 468 539 32,800 -717 Descending FlightAware ADS-B
Sun 09:18:42 AM -20.5570 -44.7210 149° Southeast 466 536 31,900 -1,125 Descending FlightAware ADS-B
Sun 09:19:25 AM -20.6550 -44.6600 150° Southeast 475 547 31,000 -628 Descending FlightAware ADS-B
Sun 09:20:08 AM -20.7250 -44.6150 149° Southeast 474 545 31,000  Level FlightAware ADS-B
Sun 09:20:46 AM -20.7960 -44.5710 150° Southeast 472 543 31,000  Level FlightAware ADS-B
Sun 09:21:29 AM -20.8810 -44.5160 149° Southeast 471 542 31,000  Level FlightAware ADS-B
Sun 09:22:29 AM -20.9930 -44.4460 150° Southeast 472 543 31,000  Level FlightAware ADS-B
Sun 09:23:31 AM -21.1190 -44.3660 149° Southeast 472 543 31,000 -222 Level FlightAware ADS-B
Sun 09:24:17 AM -21.2070 -44.3100 149° Southeast 471 542 30,600 -865 Descending FlightAware ADS-B
Sun 09:25:22 AM -21.3260 -44.2340 149° Southeast 471 542 29,400 -1,543 Descending FlightAware ADS-B
Sun 09:26:02 AM -21.4070 -44.1810 149° Southeast 452 520 27,900 -2,100 Descending FlightAware ADS-B
Sun 09:26:42 AM -21.4780 -44.1360 149° Southeast 450 518 26,600 -1,923 Descending FlightAware ADS-B
Sun 09:27:20 AM -21.5390 -44.0960 149° Southeast 436 502 25,400 -1,259 Descending FlightAware ADS-B
Sun 09:28:03 AM -21.6050 -44.0520 148° Southeast 432 497 24,900 -380 Descending FlightAware ADS-B
Sun 09:28:39 AM -21.6570 -44.0180 149° Southeast 432 497 24,900 -2,595 Level FlightAware ADS-B
Sun 09:29:17 AM -21.7320 -43.9710 150° Southeast 418 481 21,700 -3,366 Descending FlightAware ADS-B
Sun 09:30:01 AM -21.8100 -43.9200 149° Southeast 409 471 20,300 -1,902 Descending FlightAware ADS-B
Sun 09:30:39 AM -21.8720 -43.8800 149° Southeast 400 460 19,100 -1,725 Descending FlightAware ADS-B
Sun 09:31:21 AM -21.9370 -43.8370 148° Southeast 393 452 18,000 -1,683 Descending FlightAware ADS-B
Sun 09:32:01 AM -21.9990 -43.7970 149° Southeast 386 444 16,800 -1,692 Descending FlightAware ADS-B
Sun 09:32:39 AM -22.0530 -43.7620 149° Southeast 382 440 15,800 -1,481 Descending FlightAware ADS-B
Sun 09:33:22 AM -22.1010 -43.7310 149° Southeast 384 442 14,800 -1,624 Descending FlightAware ADS-B
Sun 09:34:04 AM -22.1700 -43.6850 148° Southeast 377 434 13,500 -1,976 Descending FlightAware ADS-B
Sun 09:34:44 AM -22.2480 -43.6340 149° Southeast 368 423 12,100 -1,579 Descending FlightAware ADS-B
Sun 09:35:39 AM -22.3090 -43.5940 149° Southeast 354 407 11,000 -1,125 Descending FlightAware ADS-B
Sun 09:36:36 AM -22.3820 -43.5470 149° Southeast 315 362 10,000 -1,108 Descending FlightAware ADS-B
Sun 09:36:44 AM -22.3960 -43.5440 169° South 306 352 9,800 -1,455 Descending FlightAware ADS-B
Sun 09:37:09 AM -22.4420 -43.5560 194° South 286 329 9,200 -1,263 Descending FlightAware ADS-B
Sun 09:37:41 AM -22.4680 -43.5650 198° South 284 327 8,600 -1,250 Descending FlightAware ADS-B
Sun 09:37:57 AM -22.4850 -43.5710 198° South 285 328 8,200 -711 Descending FlightAware ADS-B
Sun 09:38:57 AM -22.5800 -43.6030 197° South 289 333 7,700 -500 Descending FlightAware ADS-B
Sun 09:39:33 AM -22.6090 -43.6120 196° South 286 329 7,400 -529 Descending FlightAware ADS-B
Sun 09:40:05 AM -22.6480 -43.6230 195° South 270 311 7,100 -1,200 Descending FlightAware ADS-B
Sun 09:40:13 AM -22.6560 -43.5950 107° East 261 300 6,600 -1,500 Descending FlightAware ADS-B
Sun 09:40:45 AM -22.6750 -43.5610 121° Southeast 252 290 6,100 -842 Descending FlightAware ADS-B
Sun 09:41:10 AM -22.6880 -43.5390 123° Southeast 239 275 5,800 -346 Descending FlightAware ADS-B
Sun 09:41:37 AM -22.7010 -43.5150 120° Southeast 239 275 5,800 -1,333 Level FlightAware ADS-B
Sun 09:42:31 AM -22.7210 -43.4560 110° East 224 258 4,000 -1,816 Descending FlightAware ADS-B
Sun 09:42:53 AM -22.7230 -43.4290 95° East 217 250 3,500 -1,565 Descending FlightAware ADS-B
Sun 09:43:17 AM -22.7240 -43.4020 92° East 211 243 2,800 -1,200 Descending FlightAware ADS-B
Sun 09:43:58 AM -22.7430 -43.3690 122° Southeast 183 211 2,200 -923 Descending FlightAware ADS-B
Sun 09:44:22 AM -22.7540 -43.3520 125° Southeast 170 196 1,800 -947 Descending FlightAware ADS-B
Sun 09:44:55 AM -22.7680 -43.3310 126° Southeast 156 180 1,300 -500 Descending FlightAware ADS-B
Sun 09:45:22 AM -22.7780 -43.3160 126° Southeast 156 180 1,300 -740 Level FlightAware ADS-B
Sun 09:46:08 AM -22.7970 -43.2870 125° Southeast 150 173 400 -1,174 Descending FlightAware ADS-B
Sun 09:47:03 AM -22.8200 -43.2530 126° Southeast 150 173 -436 Descending FlightAware ADS-B
Sun 09:47:29 AM -22.8090 -43.2410 45° Northeast 150 173  Level FlightAware ADS-B
Sun 09:48:56 AM -22.8220 -43.2430 188° South  Level FlightAware ADS-B
Sun 09:49:29 AM -22.8210 -43.2450 298° West  Level FlightAware ADS-B
Sun 09:49:53 AM -22.8190 -43.2460 335° Northwest  Level FlightAware ADS-B
Sun 09:50:27 AM -22.8180 -43.2450 43° Northeast  Level FlightAware ADS-B
Sun 09:51:12 AM -22.8160 -43.2480 306° West  Level FlightAware ADS-B
Sun 09:52:49 AM -22.8150 -43.2480 360° North  Level FlightAware ADS-B
Sun 09:55:00 AM -22.8089 -43.2436 33° Northeast  Level Estimated
Sun 09:56:00 AM -22.8089 -43.2436 137° Southeast  Level Estimated
Sun 09:57:00 AM -22.8089 -43.2436 137° Southeast  Level Estimated
Sun 09:58:00 AM -22.8089 -43.2436 137° Southeast  Level Estimated
Sun 09:59:00 AM -22.8089 -43.2436 137° Southeast  Level Estimated
Sun 10:00:00 AM -22.8089 -43.2436 137° Southeast  Level Estimated
Sun 10:01:00 AM -22.8089 -43.2436 137° Southeast  Level Estimated
Sun 10:02:00 AM -22.8089 -43.2436 137° Southeast  Level Estimated
Sun 10:03:00 AM -22.8089 -43.2436 137° Southeast  Level Estimated
Sun 10:04:00 AM -22.8089 -43.2436 137° Southeast  Level Estimated
Sun 10:05:00 AM -22.8089 -43.2436 137° Southeast  Level Estimated
Sun 10:06:00 AM -22.8089 -43.2436 137° Southeast  Level Estimated
Sun 10:07:00 AM -22.8089 -43.2436 137° Southeast  Level Estimated
Sun 10:08:00 AM -22.8089 -43.2436 137° Southeast  Level Estimated
Sun 10:09:00 AM -22.8089 -43.2436 137° Southeast  Level Estimated
Sun 10:10:00 AM -22.8089 -43.2436 137° Southeast  Level Estimated
Sun 10:11:00 AM -22.8089 -43.2436 137° Southeast  Level Estimated
Sun 10:12:00 AM -22.8089 -43.2436 137° Southeast  Level Estimated
Sun 10:13:00 AM -22.8089 -43.2436 137° Southeast  Level Estimated
Sun 10:14:00 AM -22.8089 -43.2436 137° Southeast  Level Estimated
Sun 10:15:00 AM -22.8089 -43.2436 137° Southeast  Level Estimated
Sun 10:16:00 AM -22.8089 -43.2436 137° Southeast  Level Estimated
Sun 10:17:00 AM -22.8089 -43.2436 137° Southeast  Level Estimated
Sun 10:18:00 AM -22.8089 -43.2436 137° Southeast  Level Estimated

Login

Don't have an account? Register now (free) for customized features, flight alerts, and more!